Terminal Aerodrome Forecast
Issued by NWS

Home | Current Version | Previous Version | Text Only | Print | Product List | Glossary On
Versions: 1 2 3 4 5 6 7 8 9 10 11 12 13 14
000
FTUS45 KRIW 140500
TAFCOD
TAF
KCOD 140522Z 1406/1506 VRB06KT P6SM SCT110
     FM141200 VRB05KT P6SM FEW110 SCT250
     FM141800 02008KT P6SM SCT090 SCT120
     FM142100 VRB15G25KT P6SM VCTS SCT080CB BKN120
     FM150300 VRB06KT P6SM VCSH BKN090
      AMD LTD TO CLD VIS AND WIND=

USA.gov is the U.S. government's official web portal to all federal, state and local government web resources and services.